createdAt,value
2023-02-08T00:01:33.557Z,43.70
2023-02-08T00:04:02.367Z,44.60
2023-02-08T00:06:30.905Z,43.80
2023-02-08T00:09:00.130Z,43.70
2023-02-08T00:11:28.484Z,43.80
2023-02-08T00:13:56.720Z,46.80
2023-02-08T00:16:25.194Z,49.60
2023-02-08T00:18:53.718Z,48.20
2023-02-08T00:21:22.725Z,51.10
2023-02-08T00:23:51.317Z,50.20
2023-02-08T00:26:20.051Z,49.00
2023-02-08T00:28:48.250Z,49.80
2023-02-08T00:31:16.664Z,50.70
2023-02-08T00:33:45.991Z,48.90
2023-02-08T00:36:14.437Z,48.00
2023-02-08T00:38:42.834Z,47.40
2023-02-08T00:41:11.654Z,49.40
2023-02-08T00:43:40.145Z,48.00
2023-02-08T00:46:09.854Z,47.20
2023-02-08T00:48:38.271Z,41.60
2023-02-08T00:51:13.940Z,42.30
2023-02-08T00:53:45.606Z,43.50
2023-02-08T00:56:16.085Z,43.90
2023-02-08T00:58:45.196Z,43.40
2023-02-08T01:01:14.546Z,41.80
2023-02-08T01:03:45.707Z,39.40
2023-02-08T01:06:17.075Z,39.20
2023-02-08T01:08:45.529Z,39.80
2023-02-08T01:11:18.685Z,41.40
2023-02-08T01:13:47.267Z,39.70
2023-02-08T01:16:21.692Z,40.40
2023-02-08T01:18:52.750Z,38.40
2023-02-08T01:21:24.395Z,37.00
2023-02-08T01:23:53.312Z,37.10
2023-02-08T01:26:22.898Z,36.90
2023-02-08T01:28:52.249Z,34.70
2023-02-08T01:31:42.318Z,36.90
2023-02-08T01:34:12.876Z,37.40
2023-02-08T01:36:41.466Z,37.80
2023-02-08T01:39:11.351Z,34.90
2023-02-08T01:41:44.572Z,35.50
2023-02-08T01:44:12.827Z,34.50
2023-02-08T01:46:51.518Z,34.50
2023-02-08T01:49:33.697Z,34.40
2023-02-08T01:52:22.922Z,35.30
2023-02-08T01:54:53.777Z,32.00
2023-02-08T01:57:23.478Z,32.80
2023-02-08T02:00:14.382Z,32.10
2023-02-08T02:02:44.445Z,32.80
2023-02-08T02:05:13.770Z,32.50
2023-02-08T02:07:42.617Z,30.10
2023-02-08T02:10:16.442Z,30.40
2023-02-08T02:12:46.344Z,31.00
2023-02-08T02:15:14.569Z,30.30
2023-02-08T02:17:43.322Z,30.50
2023-02-08T02:20:27.226Z,30.70
2023-02-08T02:23:17.802Z,29.60
2023-02-08T02:26:23.757Z,28.30
2023-02-08T02:29:33.290Z,27.10
2023-02-08T02:32:20.233Z,27.90
2023-02-08T02:35:02.118Z,27.10
2023-02-08T02:37:31.969Z,26.80
2023-02-08T02:40:08.999Z,24.80
2023-02-08T02:43:27.450Z,25.40
2023-02-08T02:46:06.297Z,24.00
2023-02-08T02:49:06.563Z,23.70
2023-02-08T02:51:48.144Z,20.40
2023-02-08T02:54:51.396Z,20.00
2023-02-08T02:57:27.529Z,18.90
2023-02-08T02:59:58.005Z,20.40
2023-02-08T03:02:28.531Z,19.40
2023-02-08T03:04:58.078Z,16.90
2023-02-08T03:07:55.863Z,16.40
2023-02-08T03:10:41.220Z,16.00
2023-02-08T03:13:25.861Z,15.50
2023-02-08T03:16:16.336Z,14.50
2023-02-08T03:19:12.106Z,15.30
2023-02-08T03:21:58.515Z,14.10
2023-02-08T03:24:32.228Z,14.00
2023-02-08T03:27:18.339Z,13.40
2023-02-08T03:30:02.820Z,12.80
2023-02-08T03:32:42.867Z,12.90
2023-02-08T03:35:27.193Z,13.90
2023-02-08T03:38:02.395Z,12.80
2023-02-08T03:40:44.897Z,13.60
2023-02-08T03:43:22.529Z,13.90
2023-02-08T03:46:14.196Z,12.60
2023-02-08T03:48:48.387Z,13.90
2023-02-08T03:51:18.564Z,13.60
2023-02-08T03:53:49.291Z,14.90
2023-02-08T03:56:23.152Z,12.80
2023-02-08T03:59:05.055Z,13.10
2023-02-08T04:01:41.881Z,12.80
2023-02-08T04:04:12.912Z,13.00
2023-02-08T04:06:41.511Z,12.40
2023-02-08T04:09:10.829Z,13.30
2023-02-08T04:11:41.603Z,14.20
2023-02-08T04:14:09.698Z,13.50
2023-02-08T04:19:37.310Z,10.50
2023-02-08T04:22:05.484Z,12.50
2023-02-08T04:24:33.827Z,12.10
2023-02-08T04:27:03.469Z,12.60
2023-02-08T04:29:33.339Z,12.60
2023-02-08T04:32:01.671Z,13.10
2023-02-08T04:34:30.282Z,14.20
2023-02-08T04:36:58.585Z,15.80
2023-02-08T04:39:26.855Z,15.30
2023-02-08T04:41:55.033Z,15.90
2023-02-08T04:44:23.751Z,15.00
2023-02-08T04:46:52.553Z,15.20
2023-02-08T04:49:20.820Z,15.60
2023-02-08T04:51:52.221Z,16.10
2023-02-08T04:54:20.538Z,16.70
2023-02-08T04:56:49.091Z,18.00
2023-02-08T04:59:17.456Z,20.40
2023-02-08T05:01:49.037Z,18.30
2023-02-08T05:04:18.645Z,16.40
2023-02-08T05:06:48.481Z,16.10
2023-02-08T05:09:17.817Z,17.20
2023-02-08T05:11:46.156Z,19.00
2023-02-08T05:14:14.366Z,20.00
2023-02-08T05:16:42.667Z,25.20
2023-02-08T05:19:14.640Z,21.40
2023-02-08T05:21:42.974Z,18.60
2023-02-08T05:24:12.841Z,18.00
2023-02-08T05:26:42.184Z,19.40
2023-02-08T05:29:13.251Z,19.50
2023-02-08T05:31:41.546Z,19.30
2023-02-08T05:34:09.943Z,20.20
2023-02-08T05:36:38.380Z,19.40
2023-02-08T05:39:08.162Z,19.70
2023-02-08T05:41:37.129Z,21.20
2023-02-08T05:44:05.532Z,21.50
2023-02-08T05:46:34.643Z,23.20
2023-02-08T05:49:03.739Z,23.30
2023-02-08T05:51:32.261Z,22.10
2023-02-08T05:54:00.563Z,22.00
2023-02-08T05:56:29.086Z,21.20
2023-02-08T05:58:57.773Z,22.10
2023-02-08T06:01:26.262Z,22.90
2023-02-08T06:03:55.301Z,21.90
2023-02-08T06:06:24.168Z,23.50
2023-02-08T06:08:52.542Z,28.60
2023-02-08T06:11:20.800Z,28.10
2023-02-08T06:13:49.093Z,26.10
2023-02-08T06:16:19.893Z,26.60
2023-02-08T06:18:48.996Z,29.20
2023-02-08T06:21:18.010Z,28.00
2023-02-08T06:23:47.556Z,28.70
2023-02-08T06:26:15.853Z,28.00
2023-02-08T06:28:47.645Z,30.70
2023-02-08T06:31:16.163Z,30.40
2023-02-08T06:33:44.562Z,32.70
2023-02-08T06:36:12.805Z,29.10
2023-02-08T06:38:41.225Z,26.80
2023-02-08T06:41:09.404Z,27.30
2023-02-08T06:43:41.004Z,24.80
2023-02-08T06:46:09.605Z,24.90
2023-02-08T06:48:39.173Z,22.20
2023-02-08T06:51:08.111Z,24.00
2023-02-08T06:53:36.439Z,22.30
2023-02-08T06:56:05.032Z,23.10
2023-02-08T06:58:33.283Z,24.70
2023-02-08T07:01:01.640Z,27.10
2023-02-08T07:03:30.019Z,26.00
2023-02-08T07:06:04.954Z,23.20
2023-02-08T07:08:36.791Z,24.40
2023-02-08T07:11:13.709Z,21.00
2023-02-08T07:13:45.051Z,23.00
2023-02-08T07:16:20.245Z,22.00
2023-02-08T07:18:50.527Z,22.30
2023-02-08T07:21:19.082Z,22.40
2023-02-08T07:23:47.752Z,23.80
2023-02-08T07:26:17.247Z,23.80
2023-02-08T07:28:45.617Z,24.50
2023-02-08T07:31:17.119Z,28.20
2023-02-08T07:33:45.628Z,25.40
2023-02-08T07:36:14.333Z,28.80
2023-02-08T07:38:42.721Z,29.40
2023-02-08T07:41:14.599Z,25.80
2023-02-08T07:43:43.620Z,25.30
2023-02-08T07:46:18.295Z,34.30
2023-02-08T07:48:46.883Z,40.80
2023-02-08T07:51:17.927Z,25.60
2023-02-08T07:53:46.378Z,29.00
2023-02-08T07:56:14.728Z,33.90
2023-02-08T07:58:43.262Z,26.80
2023-02-08T08:01:22.056Z,24.80
2023-02-08T08:03:52.223Z,27.60
2023-02-08T08:06:22.318Z,34.50
2023-02-08T08:08:51.289Z,40.30
2023-02-08T08:11:24.260Z,28.90
2023-02-08T08:13:54.407Z,25.70
2023-02-08T08:16:22.837Z,29.40
2023-02-08T08:18:51.109Z,29.60
2023-02-08T08:21:20.124Z,29.80
2023-02-08T08:23:48.486Z,31.20
2023-02-08T08:26:20.773Z,32.20
2023-02-08T08:28:49.183Z,33.20
2023-02-08T08:31:21.334Z,33.30
2023-02-08T08:33:50.599Z,32.90
2023-02-08T08:36:19.229Z,43.80
2023-02-08T08:38:47.438Z,42.60
2023-02-08T08:41:18.321Z,46.00
2023-02-08T08:43:47.298Z,33.20
2023-02-08T08:46:20.058Z,41.50
2023-02-08T08:48:48.966Z,32.50
2023-02-08T08:51:17.434Z,30.40
2023-02-08T08:53:46.001Z,31.70
2023-02-08T08:56:14.392Z,32.30
2023-02-08T08:58:44.403Z,33.10
2023-02-08T09:01:14.679Z,32.20
2023-02-08T09:03:43.322Z,33.20
2023-02-08T09:06:11.833Z,33.40
2023-02-08T09:08:40.900Z,34.00
2023-02-08T09:11:11.748Z,31.10
